Terminal Aerodrome Forecast
Issued by NWS St Louis, MO

Home | Current Version | Previous Version | Text Only | Print | Product List | Glossary On
Versions: 1 2 3 4 5 6 7 8 9 10 11 12 13 14 15 16 17 18 19 20 21
622
FTUS43 KLSX 032334
TAFSTL
TAF
KSTL 032334Z 0400/0506 29012KT P6SM OVC025
     FM040600 30009KT P6SM BKN035
     FM040900 29009KT P6SM SCT035
     FM041800 26007KT P6SM SKC
     FM050200 20005KT P6SM SKC=

USA.gov is the U.S. government's official web portal to all federal, state and local government web resources and services.